Time;durP1;ratioP1;P1;durP2;ratioP2;P2;SDS_P1;SDS_P2;PMS_P1;PMS_P2;Temp;Humidity;BMP_temperature;BMP_pressure;BME280_temperature;BME280_humidity;BME280_pressure;Samples;Min_cycle;Max_cycle;Signal;HPM_P1;HPM_P2
2022/10/21 00:00:55;;;;;;;46.25;25.95;;;10.90;99.90;;;;;;4958846;28;20122;-89
2022/10/21 00:03:23;;;;;;;43.75;26.83;;;11.00;99.90;;;;;;4973465;28;20058;-89
2022/10/21 00:05:50;;;;;;;48.33;26.33;;;11.20;99.90;;;;;;4942719;28;20043;-89
2022/10/21 00:08:17;;;;;;;47.83;26.67;;;11.00;99.90;;;;;;4957109;28;20049;-89
2022/10/21 00:10:43;;;;;;;49.13;27.20;;;11.00;99.90;;;;;;4951491;28;20050;-88
2022/10/21 00:13:09;;;;;;;49.80;27.35;;;11.00;99.90;;;;;;4958938;28;20039;-89
2022/10/21 00:15:36;;;;;;;39.47;24.05;;;11.00;99.90;;;;;;4958094;28;20404;-88
2022/10/21 00:18:02;;;;;;;54.28;26.92;;;11.00;99.90;;;;;;4960017;28;20030;-89
2022/10/21 00:20:28;;;;;;;48.33;24.98;;;11.00;99.90;;;;;;4958099;28;20089;-89
2022/10/21 00:22:53;;;;;;;51.63;25.60;;;11.00;99.90;;;;;;4946446;28;20189;-88
2022/10/21 00:25:19;;;;;;;46.03;25.73;;;11.00;99.90;;;;;;4958108;28;20042;-88
2022/10/21 00:27:45;;;;;;;43.88;24.92;;;11.00;99.90;;;;;;4939007;28;20381;-88
2022/10/21 00:30:11;;;;;;;38.42;23.25;;;11.00;99.90;;;;;;4928564;28;20501;-89
2022/10/21 00:32:37;;;;;;;44.97;24.20;;;11.00;99.90;;;;;;4949275;28;20047;-88
2022/10/21 00:35:03;;;;;;;47.10;24.48;;;11.00;99.90;;;;;;4955172;28;20042;-88
2022/10/21 00:37:30;;;;;;;39.08;24.38;;;11.00;99.90;;;;;;4987594;28;20042;-88
2022/10/21 00:39:56;;;;;;;43.58;24.13;;;11.00;99.90;;;;;;4956153;28;20041;-88
2022/10/21 00:42:27;;;;;;;45.78;25.70;;;11.00;99.90;;;;;;4945917;28;20102;-88
2022/10/21 00:45:05;;;;;;;44.95;23.85;;;11.00;99.90;;;;;;4954216;28;20043;-88
2022/10/21 00:47:45;;;;;;;37.80;23.85;;;11.00;99.90;;;;;;4974685;28;20045;-88
2022/10/21 00:50:29;;;;;;;46.83;25.33;;;11.00;99.90;;;;;;4972265;28;20487;-89
2022/10/21 00:52:56;;;;;;;37.95;22.63;;;11.00;99.90;;;;;;4955494;28;20046;-88
2022/10/21 00:55:23;;;;;;;42.35;23.23;;;11.00;99.90;;;;;;4956524;28;20082;-88
2022/10/21 00:57:50;;;;;;;46.45;25.02;;;11.00;99.90;;;;;;4956943;28;20063;-89
2022/10/21 01:00:16;;;;;;;44.80;25.23;;;11.00;99.90;;;;;;4957462;28;20104;-89
2022/10/21 01:02:42;;;;;;;37.85;23.13;;;10.90;99.90;;;;;;4941833;28;20489;-88
2022/10/21 01:05:09;;;;;;;46.90;24.52;;;10.90;99.90;;;;;;4938092;28;20098;-88
2022/10/21 01:07:35;;;;;;;46.33;24.45;;;10.90;99.90;;;;;;4970465;28;20039;-88
2022/10/21 01:10:01;;;;;;;41.45;23.65;;;10.90;99.90;;;;;;4954743;28;20046;-88
2022/10/21 01:12:45;;;;;;;40.65;23.30;;;10.90;99.90;;;;;;4970942;28;20073;-89
2022/10/21 01:15:38;;;;;;;41.15;23.23;;;10.90;99.90;;;;;;4953714;28;20127;-89
2022/10/21 01:18:31;;;;;;;43.30;23.92;;;10.80;99.90;;;;;;4954160;28;20031;-89
2022/10/21 01:21:17;;;;;;;;;;;10.80;99.90;;;;;;4950832;28;20041;-89
2022/10/21 01:24:02;;;;;;;39.97;22.23;;;10.80;99.90;;;;;;4986696;28;19926;-88
2022/10/21 01:26:47;;;;;;;41.40;24.05;;;10.90;99.90;;;;;;4958218;28;20038;-88
2022/10/21 01:29:12;;;;;;;41.47;23.15;;;11.00;99.90;;;;;;4967556;28;20102;-89
2022/10/21 01:31:41;;;;;;;43.35;24.63;;;10.90;99.90;;;;;;4960047;28;20074;-89
2022/10/21 01:34:19;;;;;;;47.78;24.25;;;10.90;99.90;;;;;;4954595;28;20042;-89
2022/10/21 01:37:02;;;;;;;35.90;23.30;;;10.90;99.90;;;;;;4953680;28;20147;-88
2022/10/21 01:39:39;;;;;;;38.97;22.05;;;10.90;99.90;;;;;;4950114;28;20086;-88
2022/10/21 01:42:13;;;;;;;38.83;21.90;;;10.90;99.90;;;;;;4955839;28;20488;-91
2022/10/21 01:44:53;;;;;;;35.08;21.95;;;10.80;99.90;;;;;;4954836;28;20429;-89
2022/10/21 01:47:33;;;;;;;35.45;20.27;;;10.80;99.90;;;;;;4954922;28;20074;-88
2022/10/21 01:50:40;;;;;;;32.90;19.70;;;10.80;99.90;;;;;;4972029;28;20095;-88
2022/10/21 01:53:11;;;;;;;30.92;19.75;;;10.70;99.90;;;;;;4936997;28;20050;-88
2022/10/21 01:55:39;;;;;;;33.15;20.08;;;10.60;99.90;;;;;;4974083;28;20043;-88
2022/10/21 01:58:14;;;;;;;39.92;22.27;;;10.60;99.90;;;;;;4933517;28;20086;-88
2022/10/21 02:00:42;;;;;;;36.78;21.70;;;10.60;99.90;;;;;;4971172;28;20098;-89
2022/10/21 02:03:12;;;;;;;35.58;22.40;;;10.60;99.90;;;;;;4951511;28;20074;-88
2022/10/21 02:05:38;;;;;;;37.10;22.67;;;10.60;99.90;;;;;;4948282;28;20092;-88
2022/10/21 02:08:04;;;;;;;41.63;22.55;;;10.70;99.90;;;;;;4937145;28;20481;-89
2022/10/21 02:10:35;;;;;;;46.72;23.73;;;10.70;99.90;;;;;;4957900;28;20053;-89
2022/10/21 02:13:03;;;;;;;42.50;23.25;;;10.80;99.90;;;;;;4952404;28;20047;-89
2022/10/21 02:15:31;;;;;;;54.13;24.52;;;10.80;99.90;;;;;;4961259;28;20070;-90
2022/10/21 02:18:06;;;;;;;56.42;25.33;;;10.90;99.90;;;;;;4956300;28;20421;-89
2022/10/21 02:20:39;;;;;;;43.60;24.10;;;11.00;99.90;;;;;;4989247;28;20035;-88
2022/10/21 02:23:07;;;;;;;47.92;24.50;;;11.00;99.90;;;;;;4972674;28;20050;-88
2022/10/21 02:25:37;;;;;;;55.97;25.15;;;11.10;99.90;;;;;;4940614;28;20047;-89
2022/10/21 02:28:03;;;;;;;55.30;25.83;;;11.10;99.90;;;;;;4954379;28;20043;-88
2022/10/21 02:30:51;;;;;;;43.17;23.17;;;11.20;99.90;;;;;;4972866;28;20051;-88
2022/10/21 02:33:31;;;;;;;52.95;25.58;;;11.20;99.90;;;;;;4974957;28;20065;-89
2022/10/21 02:36:14;;;;;;;43.50;24.63;;;11.30;99.90;;;;;;4975025;28;20100;-89
2022/10/21 02:38:50;;;;;;;60.88;26.35;;;11.30;99.90;;;;;;4970302;28;20035;-91
2022/10/21 02:41:20;;;;;;;78.65;29.05;;;11.30;99.90;;;;;;4953434;28;20031;-90
2022/10/21 02:43:59;;;;;;;52.55;25.45;;;11.30;99.90;;;;;;4953393;28;20043;-91
2022/10/21 02:46:26;;;;;;;60.42;26.77;;;11.30;99.90;;;;;;4955730;28;20039;-91
2022/10/21 02:48:52;;;;;;;48.80;25.92;;;11.40;99.90;;;;;;4967773;28;20106;-90
2022/10/21 02:51:18;;;;;;;51.38;25.15;;;11.40;99.90;;;;;;4952635;28;20113;-90
2022/10/21 02:53:43;;;;;;;47.97;24.55;;;11.40;99.90;;;;;;4933935;28;20074;-89
2022/10/21 02:56:09;;;;;;;54.88;25.17;;;11.40;99.90;;;;;;4967881;28;20519;-89
2022/10/21 02:58:35;;;;;;;65.95;28.02;;;11.40;99.90;;;;;;4956122;28;20052;-90
2022/10/21 03:01:01;;;;;;;56.38;27.08;;;11.40;99.90;;;;;;4986712;28;20042;-90
2022/10/21 03:03:28;;;;;;;57.47;26.95;;;11.40;99.90;;;;;;4967466;28;20039;-90
2022/10/21 03:05:54;;;;;;;62.65;28.95;;;11.50;99.90;;;;;;4952229;28;20043;-90
2022/10/21 03:08:20;;;;;;;63.00;28.52;;;11.50;99.90;;;;;;4956387;28;20050;-91
2022/10/21 03:10:49;;;;;;;51.22;26.67;;;11.50;99.90;;;;;;4984137;28;20058;-90
2022/10/21 03:13:15;;;;;;;63.50;28.60;;;11.50;99.90;;;;;;4951137;28;20044;-91
2022/10/21 03:15:40;;;;;;;51.65;25.38;;;11.50;99.90;;;;;;4935660;28;20049;-91
2022/10/21 03:18:06;;;;;;;59.17;27.88;;;11.50;99.90;;;;;;4939084;28;20118;-92
2022/10/21 03:20:32;;;;;;;50.75;26.67;;;11.70;99.90;;;;;;4937646;28;20046;-90
2022/10/21 03:22:57;;;;;;;59.25;27.40;;;11.50;99.90;;;;;;4957885;28;20042;-91
2022/10/21 03:25:23;;;;;;;59.40;28.35;;;11.50;99.90;;;;;;4955388;28;20423;-90
2022/10/21 03:27:50;;;;;;;56.22;26.58;;;11.50;99.90;;;;;;4969784;28;20133;-91
2022/10/21 03:30:16;;;;;;;61.38;28.98;;;11.50;99.90;;;;;;4958231;28;20034;-91
2022/10/21 03:32:42;;;;;;;49.88;25.83;;;11.40;99.90;;;;;;4953659;28;20047;-90
2022/10/21 03:35:08;;;;;;;171.68;40.70;;;11.50;99.90;;;;;;4953383;28;20045;-91
2022/10/21 03:37:33;;;;;;;49.38;25.70;;;11.40;99.90;;;;;;4952802;28;20058;-90
2022/10/21 03:39:59;;;;;;;46.25;25.13;;;11.40;99.90;;;;;;4935239;28;20032;-91
2022/10/21 03:42:27;;;;;;;69.80;31.05;;;11.40;99.90;;;;;;4985945;28;20411;-91
2022/10/21 03:44:53;;;;;;;41.92;24.60;;;11.40;99.90;;;;;;4940337;28;20035;-90
2022/10/21 03:47:18;;;;;;;45.60;25.17;;;11.40;99.90;;;;;;4955039;28;20594;-90
2022/10/21 03:49:44;;;;;;;49.72;25.75;;;11.40;99.90;;;;;;4924153;28;20046;-90
2022/10/21 03:52:10;;;;;;;74.75;30.60;;;11.30;99.90;;;;;;4936270;28;20115;-90
2022/10/21 03:54:35;;;;;;;77.78;31.88;;;11.30;99.90;;;;;;4935931;28;20036;-90
2022/10/21 03:57:01;;;;;;;80.55;30.70;;;11.30;99.90;;;;;;4968048;28;20047;-89
2022/10/21 03:59:27;;;;;;;86.80;31.20;;;11.30;99.90;;;;;;4936353;28;20043;-90
2022/10/21 04:01:52;;;;;;;56.50;27.13;;;11.30;99.90;;;;;;4937684;28;20039;-90
2022/10/21 04:04:18;;;;;;;55.38;27.02;;;11.30;99.90;;;;;;4954609;28;20079;-90
2022/10/21 04:06:44;;;;;;;60.00;26.77;;;11.30;99.90;;;;;;4967139;28;20410;-89
2022/10/21 04:09:09;;;;;;;69.22;30.08;;;11.40;99.90;;;;;;4956582;28;20050;-90
2022/10/21 04:11:35;;;;;;;67.05;29.17;;;11.30;99.90;;;;;;4940909;28;20038;-90
2022/10/21 04:14:01;;;;;;;56.17;27.45;;;11.30;99.90;;;;;;4940685;28;20090;-90
2022/10/21 04:16:27;;;;;;;52.08;25.20;;;11.30;99.90;;;;;;4947244;28;20035;-91
2022/10/21 04:18:52;;;;;;;45.65;24.75;;;11.20;99.90;;;;;;4958394;28;20066;-90
2022/10/21 04:21:18;;;;;;;47.90;23.98;;;11.20;99.90;;;;;;4959668;28;20105;-90
2022/10/21 04:23:44;;;;;;;61.83;26.50;;;11.20;99.90;;;;;;4955210;28;20054;-90
2022/10/21 04:26:10;;;;;;;45.05;24.30;;;11.10;99.90;;;;;;4943659;28;20046;-88
2022/10/21 04:28:35;;;;;;;64.22;28.48;;;11.10;99.90;;;;;;4972129;28;20089;-90
2022/10/21 04:31:02;;;;;;;44.47;24.58;;;11.10;99.90;;;;;;4943043;28;20038;-89
2022/10/21 04:33:27;;;;;;;38.78;21.48;;;11.10;99.90;;;;;;4960299;28;20101;-89
2022/10/21 04:35:54;;;;;;;41.42;22.20;;;11.10;99.90;;;;;;4971822;28;20035;-89
2022/10/21 04:38:21;;;;;;;48.15;24.23;;;11.10;99.90;;;;;;4968349;28;20046;-89
2022/10/21 04:40:47;;;;;;;48.83;23.80;;;11.00;99.90;;;;;;4956187;28;20046;-89
2022/10/21 04:43:12;;;;;;;73.40;27.45;;;11.00;99.90;;;;;;4955912;28;20046;-89
2022/10/21 04:45:39;;;;;;;35.42;20.50;;;11.00;99.90;;;;;;4954902;28;20042;-89
2022/10/21 04:48:05;;;;;;;59.30;26.10;;;10.90;99.90;;;;;;4974657;28;20067;-88
2022/10/21 04:50:33;;;;;;;85.88;29.77;;;10.90;99.90;;;;;;4974805;28;20558;-88
2022/10/21 04:52:59;;;;;;;45.53;23.42;;;10.90;99.90;;;;;;4954934;28;20506;-89
2022/10/21 04:55:25;;;;;;;55.47;24.63;;;10.90;99.90;;;;;;4973039;28;20069;-89
2022/10/21 04:57:51;;;;;;;57.08;28.02;;;10.80;99.90;;;;;;4941985;28;20085;-88
2022/10/21 05:00:16;;;;;;;98.22;28.65;;;10.90;99.90;;;;;;4973204;28;20272;-88
2022/10/21 05:02:42;;;;;;;237.82;40.97;;;10.80;99.90;;;;;;4987111;28;20042;-88
2022/10/21 05:05:08;;;;;;;48.38;19.73;;;10.70;99.90;;;;;;4942844;28;20074;-88
2022/10/21 05:07:34;;;;;;;42.40;21.58;;;10.70;99.90;;;;;;4957944;28;20061;-88
2022/10/21 05:09:59;;;;;;;40.08;19.15;;;10.70;99.90;;;;;;4950970;28;20039;-88
2022/10/21 05:12:25;;;;;;;31.55;19.63;;;10.60;99.90;;;;;;4974348;28;20131;-89
2022/10/21 05:14:50;;;;;;;31.88;17.85;;;10.60;99.90;;;;;;4944070;28;20058;-88
2022/10/21 05:17:16;;;;;;;28.80;18.70;;;10.60;99.90;;;;;;4970616;28;20119;-88
2022/10/21 05:19:42;;;;;;;35.45;19.63;;;10.60;99.90;;;;;;4935037;28;20102;-89
2022/10/21 05:22:07;;;;;;;50.00;22.33;;;10.60;99.90;;;;;;4944648;28;20039;-88
2022/10/21 05:24:33;;;;;;;50.55;21.67;;;10.50;99.90;;;;;;4945704;28;20416;-88
2022/10/21 05:26:59;;;;;;;63.70;23.85;;;10.50;99.90;;;;;;4943971;28;20035;-88
2022/10/21 05:29:24;;;;;;;32.15;18.33;;;10.50;99.90;;;;;;4934653;28;20031;-88
2022/10/21 05:31:50;;;;;;;32.15;18.33;;;10.40;99.90;;;;;;4941518;28;20130;-88
2022/10/21 05:34:16;;;;;;;31.27;17.50;;;10.40;99.90;;;;;;4943648;28;20093;-88
2022/10/21 05:36:41;;;;;;;29.67;17.92;;;10.30;99.90;;;;;;4965323;28;20093;-88
2022/10/21 05:39:10;;;;;;;29.90;18.40;;;10.30;99.90;;;;;;4940210;28;20098;-88
2022/10/21 05:41:36;;;;;;;47.65;18.90;;;10.30;99.90;;;;;;4950637;28;20114;-88
2022/10/21 05:44:02;;;;;;;42.53;18.75;;;10.30;99.90;;;;;;4950009;28;20122;-88
2022/10/21 05:46:28;;;;;;;27.35;15.23;;;10.30;99.90;;;;;;4964067;28;20058;-88
2022/10/21 05:48:54;;;;;;;29.50;18.15;;;10.30;99.90;;;;;;4949048;28;20051;-88
2022/10/21 05:51:25;;;;;;;33.53;18.85;;;10.30;99.90;;;;;;4960815;28;20039;-88
2022/10/21 05:53:54;;;;;;;43.15;21.27;;;10.30;99.90;;;;;;4928897;28;20260;-88
2022/10/21 05:56:20;;;;;;;36.25;19.85;;;10.30;99.90;;;;;;4951639;28;20039;-88
2022/10/21 05:58:46;;;;;;;45.08;22.98;;;10.40;99.90;;;;;;4962456;28;20094;-88
2022/10/21 06:01:11;;;;;;;47.17;21.80;;;10.30;99.90;;;;;;4925885;28;20477;-88
2022/10/21 06:03:37;;;;;;;61.35;25.27;;;10.30;99.90;;;;;;4926905;28;20035;-88
2022/10/21 06:06:05;;;;;;;40.03;22.10;;;10.30;99.90;;;;;;4946010;28;20049;-88
2022/10/21 06:08:33;;;;;;;52.97;25.20;;;10.30;99.90;;;;;;4930680;28;20032;-88
2022/10/21 06:11:05;;;;;;;37.58;22.08;;;10.30;99.90;;;;;;4943694;28;20038;-88
2022/10/21 06:13:31;;;;;;;48.90;23.60;;;10.30;99.90;;;;;;4949916;28;20034;-88
2022/10/21 06:15:58;;;;;;;56.38;24.13;;;10.30;99.90;;;;;;4969704;28;20122;-87
2022/10/21 06:18:24;;;;;;;56.17;24.73;;;10.30;99.90;;;;;;4940518;28;20043;-88
2022/10/21 06:20:50;;;;;;;69.00;25.60;;;10.30;99.90;;;;;;4947895;28;20067;-88
2022/10/21 06:23:16;;;;;;;92.13;29.25;;;10.30;99.90;;;;;;4931600;28;20070;-88
2022/10/21 06:25:43;;;;;;;42.67;22.88;;;10.30;99.90;;;;;;4956430;28;20521;-88
2022/10/21 06:28:08;;;;;;;52.20;22.85;;;10.40;99.90;;;;;;4951256;28;20514;-88
2022/10/21 06:30:34;;;;;;;57.90;26.67;;;10.40;99.90;;;;;;4951059;28;20031;-88
2022/10/21 06:33:00;;;;;;;52.28;24.13;;;10.40;99.90;;;;;;4956232;28;20047;-90
2022/10/21 06:35:26;;;;;;;88.05;30.45;;;10.50;99.90;;;;;;4933700;28;20035;-89
2022/10/21 06:37:51;;;;;;;57.75;25.98;;;10.50;99.90;;;;;;4953804;28;20027;-89
2022/10/21 06:40:17;;;;;;;55.13;24.27;;;10.50;99.90;;;;;;4924416;28;21246;-90
2022/10/21 06:42:43;;;;;;;56.10;24.20;;;10.50;99.90;;;;;;4937944;28;20693;-89
2022/10/21 06:45:09;;;;;;;76.45;27.80;;;10.60;99.90;;;;;;4926113;28;20035;-93
2022/10/21 06:47:35;;;;;;;58.65;25.48;;;10.60;99.90;;;;;;4932333;28;20049;-96
2022/10/21 06:50:02;;;;;;;67.45;28.10;;;10.60;99.90;;;;;;4913589;28;20047;-90
2022/10/21 06:52:31;;;;;;;53.17;24.88;;;10.60;99.90;;;;;;4940126;28;20047;-91
2022/10/21 06:54:57;;;;;;;62.28;27.88;;;10.60;99.90;;;;;;4956142;28;20043;-92
2022/10/21 06:57:22;;;;;;;53.70;26.05;;;10.60;99.90;;;;;;4959832;28;20042;-92
2022/10/21 06:59:48;;;;;;;43.65;22.88;;;10.60;99.90;;;;;;4915114;28;20260;-88
2022/10/21 07:02:14;;;;;;;54.90;24.88;;;10.70;99.90;;;;;;4918273;28;20071;-92
2022/10/21 07:04:43;;;;;;;46.22;21.25;;;10.70;99.90;;;;;;4903322;28;20696;-92
2022/10/21 07:07:10;;;;;;;71.45;26.50;;;10.70;99.90;;;;;;4928840;28;20045;-93
2022/10/21 07:09:35;;;;;;;71.35;25.00;;;10.70;99.90;;;;;;4929210;28;20097;-92
2022/10/21 07:12:01;;;;;;;48.90;22.48;;;10.70;99.90;;;;;;4916112;28;20091;-92
2022/10/21 07:14:27;;;;;;;52.45;24.05;;;10.70;99.90;;;;;;4927311;28;20047;-93
2022/10/21 07:16:53;;;;;;;49.72;23.38;;;10.80;99.90;;;;;;4915847;28;20049;-92
2022/10/21 07:19:18;;;;;;;65.47;26.65;;;10.80;99.90;;;;;;4927896;28;20046;-93
2022/10/21 07:21:45;;;;;;;50.63;23.98;;;10.90;99.90;;;;;;4914422;28;20050;-93
2022/10/21 07:24:11;;;;;;;65.50;24.52;;;10.90;99.90;;;;;;4955238;28;20046;-95
2022/10/21 07:26:37;;;;;;;61.03;24.38;;;10.90;99.90;;;;;;4915449;28;20050;-92
2022/10/21 07:29:03;;;;;;;66.65;26.40;;;10.90;99.90;;;;;;4935709;28;20057;-87
2022/10/21 07:31:34;;;;;;;53.72;23.92;;;11.00;99.90;;;;;;4918988;28;20122;-91
2022/10/21 07:34:03;;;;;;;50.67;24.33;;;11.10;99.90;;;;;;4933641;28;20094;-91
2022/10/21 07:36:32;;;;;;;71.70;28.00;;;11.10;99.90;;;;;;4936900;28;20063;-90
2022/10/21 07:39:02;;;;;;;61.55;26.60;;;11.20;99.90;;;;;;4935180;28;20038;-89
2022/10/21 07:41:37;;;;;;;64.95;27.00;;;11.40;99.90;;;;;;4926042;28;20035;-89
2022/10/21 07:44:03;;;;;;;60.55;25.92;;;11.40;99.90;;;;;;4935326;28;20058;-89
2022/10/21 07:46:29;;;;;;;59.60;26.67;;;11.50;99.90;;;;;;4926464;28;20047;-89
2022/10/21 07:48:55;;;;;;;92.68;29.25;;;11.50;99.90;;;;;;4930652;28;20049;-90
2022/10/21 07:51:23;;;;;;;65.50;28.63;;;11.70;99.90;;;;;;4932952;28;20042;-89
2022/10/21 07:53:51;;;;;;;62.25;29.25;;;11.70;99.90;;;;;;4944312;28;20062;-90
2022/10/21 07:56:25;;;;;;;73.35;29.55;;;11.80;99.90;;;;;;4943720;28;20050;-90
2022/10/21 07:58:52;;;;;;;69.47;28.88;;;11.90;99.90;;;;;;4933790;28;20602;-90
2022/10/21 08:01:18;;;;;;;62.25;27.23;;;11.90;99.90;;;;;;4948122;28;20043;-90
2022/10/21 08:03:44;;;;;;;74.22;30.40;;;12.00;99.90;;;;;;4943971;28;20035;-90
2022/10/21 08:06:14;;;;;;;79.72;31.27;;;12.10;99.90;;;;;;4952509;28;20042;-90
2022/10/21 08:08:40;;;;;;;77.75;29.05;;;12.20;99.90;;;;;;4976096;28;20066;-90
2022/10/21 08:11:07;;;;;;;74.97;32.80;;;12.30;99.90;;;;;;4956560;28;20097;-91
2022/10/21 08:13:33;;;;;;;79.30;33.88;;;12.40;99.90;;;;;;4941798;28;20456;-90
2022/10/21 08:15:59;;;;;;;74.57;30.52;;;12.40;99.90;;;;;;4929110;28;20044;-90
2022/10/21 08:18:26;;;;;;;58.00;27.42;;;12.50;99.90;;;;;;4950852;28;20035;-90
2022/10/21 08:20:52;;;;;;;62.00;26.63;;;12.50;99.90;;;;;;4954882;28;20039;-90
2022/10/21 08:23:20;;;;;;;63.63;28.20;;;12.60;99.90;;;;;;4971216;28;20121;-90
2022/10/21 08:25:47;;;;;;;60.97;27.38;;;12.60;99.90;;;;;;4956459;28;20043;-90
2022/10/21 08:28:14;;;;;;;72.85;29.63;;;12.70;99.90;;;;;;4938800;28;20105;-90
2022/10/21 08:30:40;;;;;;;62.08;26.88;;;12.80;99.90;;;;;;4940394;28;20039;-90
2022/10/21 08:33:06;;;;;;;56.05;26.42;;;12.80;99.90;;;;;;4929165;28;20067;-91
2022/10/21 08:35:32;;;;;;;59.35;26.77;;;12.80;99.90;;;;;;4949466;28;20581;-90
2022/10/21 08:37:58;;;;;;;56.92;27.23;;;12.90;99.90;;;;;;4953083;28;20035;-90
2022/10/21 08:40:24;;;;;;;55.35;25.77;;;13.00;99.90;;;;;;4953701;28;20421;-91
2022/10/21 08:42:50;;;;;;;54.92;25.17;;;13.00;99.90;;;;;;4945277;28;20106;-90
2022/10/21 08:45:25;;;;;;;49.75;24.60;;;13.10;99.90;;;;;;4924843;28;20043;-91
2022/10/21 08:47:54;;;;;;;54.00;26.20;;;13.20;99.90;;;;;;4943602;28;20074;-91
2022/10/21 08:50:37;;;;;;;58.47;25.52;;;13.30;99.90;;;;;;4946775;28;20045;-90
2022/10/21 08:53:12;;;;;;;;;;;13.30;99.90;;;;;;4954040;28;20518;-91
2022/10/21 08:55:40;;;;;;;48.60;23.23;;;13.30;99.90;;;;;;4971168;28;20383;-90
2022/10/21 08:58:14;;;;;;;44.33;21.80;;;13.40;99.90;;;;;;4948318;28;20070;-91
2022/10/21 09:00:47;;;;;;;41.33;22.60;;;13.40;99.90;;;;;;4941657;28;20416;-91
2022/10/21 09:03:27;;;;;;;44.60;21.38;;;13.40;99.90;;;;;;4936725;28;20039;-92
2022/10/21 09:06:13;;;;;;;45.25;23.23;;;13.50;99.90;;;;;;4941520;28;20038;-91
2022/10/21 09:08:42;;;;;;;44.58;22.88;;;13.50;99.90;;;;;;4975290;28;20039;-91
2022/10/21 09:11:40;;;;;;;41.28;22.80;;;13.60;99.90;;;;;;4969376;28;20105;-92
2022/10/21 09:14:24;;;;;;;40.63;21.60;;;13.70;99.90;;;;;;4947380;28;20046;-92
2022/10/21 09:17:20;;;;;;;45.70;22.10;;;13.80;99.90;;;;;;4962672;28;20039;-93
2022/10/21 09:19:54;;;;;;;36.72;19.27;;;13.80;99.90;;;;;;4965268;28;20166;-92
2022/10/21 09:22:41;;;;;;;35.03;20.42;;;13.90;99.90;;;;;;4945802;29;20031;-92
2022/10/21 09:25:36;;;;;;;32.20;20.13;;;14.10;99.90;;;;;;4951220;28;20034;-92
2022/10/21 09:28:15;;;;;;;37.17;19.52;;;14.20;99.90;;;;;;4973948;28;20528;-93
2022/10/21 09:30:43;;;;;;;28.88;16.50;;;14.30;99.90;;;;;;4939728;28;20042;-93
2022/10/21 09:33:24;;;;;;;28.17;17.27;;;14.40;99.90;;;;;;4963234;28;20043;-93
2022/10/21 09:36:01;;;;;;;24.80;14.88;;;14.50;99.90;;;;;;4941679;29;20445;-93
2022/10/21 09:38:51;;;;;;;26.33;15.93;;;14.60;99.90;;;;;;4949489;28;20118;-92
2022/10/21 09:41:22;;;;;;;27.00;14.27;;;14.70;99.90;;;;;;4948821;28;20038;-93
2022/10/21 09:43:48;;;;;;;22.25;13.43;;;14.80;99.90;;;;;;4951694;28;20436;-94
2022/10/21 09:46:15;;;;;;;27.35;15.48;;;14.80;99.90;;;;;;4921752;28;20097;-95
2022/10/21 09:48:47;;;;;;;20.48;14.20;;;14.80;99.90;;;;;;4982969;28;20497;-94
2022/10/21 09:51:25;;;;;;;26.25;14.80;;;14.80;99.90;;;;;;4949517;28;20610;-95
2022/10/21 09:54:08;;;;;;;19.48;13.43;;;14.80;99.90;;;;;;4955841;28;20560;-94
2022/10/21 09:56:44;;;;;;;22.05;14.43;;;14.80;99.90;;;;;;4949178;28;20043;-96
2022/10/21 09:59:12;;;;;;;20.50;14.40;;;14.80;99.90;;;;;;4930996;28;275264;-96
2022/10/21 10:01:41;;;;;;;21.20;14.18;;;14.80;99.90;;;;;;4961804;28;20050;-96
2022/10/21 10:04:29;;;;;;;23.85;14.82;;;14.80;99.90;;;;;;4934670;28;20561;-88
2022/10/21 10:06:57;;;;;;;26.05;14.60;;;14.80;99.90;;;;;;4951308;28;20069;-87
2022/10/21 10:09:33;;;;;;;25.25;15.65;;;14.80;99.90;;;;;;4978085;28;20039;-88
2022/10/21 10:12:12;;;;;;;27.50;15.45;;;14.80;99.90;;;;;;4974206;28;20508;-86
2022/10/21 10:14:45;;;;;;;20.85;13.60;;;14.80;99.90;;;;;;4944131;28;20041;-87
2022/10/21 10:17:23;;;;;;;22.08;14.38;;;14.90;99.90;;;;;;4934731;28;20066;-87
2022/10/21 10:20:04;;;;;;;20.80;13.82;;;14.90;99.90;;;;;;4979184;28;20067;-86
2022/10/21 10:22:31;;;;;;;27.67;14.02;;;14.90;99.90;;;;;;4951977;28;20066;-92
2022/10/21 10:25:29;;;;;;;21.63;13.35;;;14.90;99.90;;;;;;4961797;28;20066;-87
2022/10/21 10:28:14;;;;;;;19.80;12.73;;;14.90;99.90;;;;;;4961122;28;20055;-89
2022/10/21 10:30:40;;;;;;;20.02;13.18;;;14.90;99.90;;;;;;4950267;28;20035;-90
2022/10/21 10:33:13;;;;;;;19.98;14.25;;;14.90;99.90;;;;;;4943223;28;20064;-89
2022/10/21 10:36:01;;;;;;;22.95;14.02;;;15.00;99.90;;;;;;4977089;28;20063;-88
2022/10/21 10:38:36;;;;;;;767.45;700.42;;;15.00;99.90;;;;;;4948404;28;20499;-89
2022/10/21 10:41:16;;;;;;;63.72;57.67;;;15.10;99.90;;;;;;4944666;28;20052;-88
2022/10/21 10:43:52;;;;;;;71.97;65.82;;;15.10;99.90;;;;;;4962533;28;20460;-88
2022/10/21 10:46:32;;;;;;;26.38;20.30;;;15.10;99.90;;;;;;4977278;28;20047;-88
2022/10/21 10:49:12;;;;;;;22.73;16.50;;;15.20;99.90;;;;;;4947712;28;20392;-89
2022/10/21 10:51:41;;;;;;;23.98;15.18;;;15.20;99.90;;;;;;4946907;28;20661;-90
2022/10/21 10:54:20;;;;;;;24.90;15.60;;;15.20;99.90;;;;;;4946518;28;20030;-90
2022/10/21 10:56:55;;;;;;;27.00;15.98;;;15.20;99.90;;;;;;4945278;28;20049;-94
2022/10/21 10:59:54;;;;;;;28.00;15.25;;;15.20;99.90;;;;;;4950300;28;20057;-87
2022/10/21 11:02:54;;;;;;;22.98;14.77;;;15.20;99.90;;;;;;4962407;28;20049;-90
2022/10/21 11:05:24;;;;;;;24.88;14.35;;;15.20;99.90;;;;;;4947767;28;20038;-86
2022/10/21 11:07:56;;;;;;;26.23;15.65;;;15.30;99.90;;;;;;4961242;28;20522;-88
2022/10/21 11:10:24;;;;;;;26.77;14.00;;;15.30;99.90;;;;;;4945448;28;20046;-89
2022/10/21 11:12:51;;;;;;;25.02;13.65;;;15.30;99.90;;;;;;4939720;28;20039;-91
2022/10/21 11:15:17;;;;;;;23.13;12.93;;;15.40;99.90;;;;;;4948049;28;20042;-90
2022/10/21 11:18:00;;;;;;;19.60;12.57;;;15.40;99.90;;;;;;4961662;28;20051;-90
2022/10/21 11:20:48;;;;;;;19.60;12.55;;;15.40;99.90;;;;;;4954297;28;20086;-92
2022/10/21 11:23:44;;;;;;;20.35;12.40;;;15.40;99.90;;;;;;4961039;28;20047;-87
2022/10/21 11:26:28;;;;;;;22.52;13.43;;;15.50;99.90;;;;;;4944740;28;20543;-88
2022/10/21 11:29:05;;;;;;;21.05;12.77;;;15.50;99.90;;;;;;4962012;28;20062;-89
2022/10/21 11:31:52;;;;;;;19.58;12.57;;;15.60;99.90;;;;;;4955857;28;20093;-88
2022/10/21 11:34:27;;;;;;;17.23;12.25;;;15.60;99.90;;;;;;4945975;28;20413;-88
2022/10/21 11:37:19;;;;;;;30.38;13.40;;;15.60;99.90;;;;;;4950736;28;20039;-88
2022/10/21 11:39:51;;;;;;;22.15;12.57;;;15.60;99.90;;;;;;4947690;28;20122;-88
2022/10/21 11:42:39;;;;;;;18.05;12.45;;;15.60;99.90;;;;;;4959793;28;20035;-88
2022/10/21 11:45:23;;;;;;;23.90;12.90;;;15.60;99.90;;;;;;4963924;28;20110;-88
2022/10/21 11:48:04;;;;;;;18.73;11.38;;;15.70;99.90;;;;;;4976744;28;20122;-89
2022/10/21 11:50:43;;;;;;;20.40;12.40;;;15.70;99.90;;;;;;4948128;28;20047;-89
2022/10/21 11:53:26;;;;;;;19.08;11.20;;;15.70;99.90;;;;;;4978906;28;20047;-95
2022/10/21 11:56:24;;;;;;;19.52;10.82;;;15.70;99.90;;;;;;4942878;28;20451;-89
2022/10/21 11:59:13;;;;;;;19.52;11.10;;;15.70;99.90;;;;;;4944186;28;20051;-88
2022/10/21 12:02:00;;;;;;;17.90;11.25;;;15.70;99.90;;;;;;4939023;28;20049;-89
2022/10/21 12:04:29;;;;;;;17.73;11.15;;;15.70;99.90;;;;;;4950307;28;20039;-89
2022/10/21 12:07:10;;;;;;;15.50;9.90;;;15.70;99.90;;;;;;4970450;28;20043;-88
2022/10/21 12:10:13;;;;;;;16.42;10.20;;;15.70;99.90;;;;;;4948388;28;20045;-87
2022/10/21 12:12:45;;;;;;;18.95;10.13;;;15.80;99.90;;;;;;4955460;28;20043;-87
2022/10/21 12:15:23;;;;;;;15.88;10.63;;;15.80;99.90;;;;;;4959851;28;20035;-88
2022/10/21 12:17:49;;;;;;;12.68;9.13;;;15.80;99.90;;;;;;4975344;28;20142;-85
2022/10/21 12:20:25;;;;;;;19.48;9.95;;;15.80;99.90;;;;;;4939762;28;20035;-85
2022/10/21 12:22:57;;;;;;;15.18;9.70;;;15.80;99.90;;;;;;4946239;28;20404;-85
2022/10/21 12:25:39;;;;;;;14.85;8.68;;;15.80;99.90;;;;;;4951823;28;20122;-86
2022/10/21 12:28:17;;;;;;;14.52;8.60;;;15.80;99.90;;;;;;4960829;28;20044;-86
2022/10/21 12:30:52;;;;;;;17.27;8.90;;;15.90;99.90;;;;;;4947761;28;20057;-86
2022/10/21 12:33:34;;;;;;;14.88;8.93;;;15.90;99.90;;;;;;4950299;28;20106;-86
2022/10/21 12:36:19;;;;;;;17.80;10.68;;;15.90;99.90;;;;;;4941694;28;20039;-86
2022/10/21 12:38:53;;;;;;;15.40;8.23;;;16.00;99.90;;;;;;4944234;28;20433;-84
2022/10/21 12:41:28;;;;;;;18.40;8.48;;;16.00;99.90;;;;;;4948573;28;20042;-89
2022/10/21 12:43:59;;;;;;;15.90;8.32;;;16.00;99.90;;;;;;4979014;28;20130;-88
2022/10/21 12:46:44;;;;;;;15.00;8.97;;;16.10;99.90;;;;;;4962856;28;20047;-86
2022/10/21 12:49:32;;;;;;;12.85;7.78;;;16.10;99.90;;;;;;4965376;28;20348;-85